Time;durP1;ratioP1;P1;durP2;ratioP2;P2;SDS_P1;SDS_P2;PMS_P1;PMS_P2;Temp;Humidity;BMP_temperature;BMP_pressure;BME280_temperature;BME280_humidity;BME280_pressure;Samples;Min_cycle;Max_cycle;Signal;HPM_P1;HPM_P2
2023/02/01 00:00:30;;;;;;;16.33;9.02;;;;;;;-1.92;86.96;93359.59;5034692;28;20033;-47
2023/02/01 00:02:55;;;;;;;14.50;9.50;;;;;;;-1.81;86.09;93350.88;5038573;28;20033;-47
2023/02/01 00:05:21;;;;;;;15.50;8.52;;;;;;;-1.93;87.32;93352.72;5043685;28;20047;-47
2023/02/01 00:07:47;;;;;;;10.57;6.63;;;;;;;-1.97;87.58;93354.84;5042464;28;20020;-48
2023/02/01 00:10:13;;;;;;;8.45;5.30;;;;;;;-1.92;87.50;93365.00;5050116;28;20012;-46
2023/02/01 00:12:38;;;;;;;6.07;4.28;;;;;;;-1.72;87.04;93362.34;5036018;28;20036;-47
2023/02/01 00:15:04;;;;;;;7.10;5.00;;;;;;;-1.78;86.82;93363.47;5039401;28;20492;-46
2023/02/01 00:17:30;;;;;;;7.78;4.55;;;;;;;-1.69;86.21;93363.38;5039127;28;20028;-47
2023/02/01 00:19:55;;;;;;;10.23;5.88;;;;;;;-1.93;87.87;93358.13;5036081;28;20014;-46
2023/02/01 00:22:20;;;;;;;10.00;6.25;;;;;;;-1.86;87.25;93355.00;5033973;28;20029;-46
2023/02/01 00:24:46;;;;;;;6.18;4.78;;;;;;;-1.90;87.61;93362.56;5038234;28;20025;-46
2023/02/01 00:27:17;;;;;;;8.23;5.20;;;;;;;-2.12;88.24;93362.25;5035908;28;20033;-46
2023/02/01 00:29:43;;;;;;;6.88;5.10;;;;;;;-2.23;88.54;93353.97;5034911;28;20024;-46
2023/02/01 00:32:09;;;;;;;10.00;6.00;;;;;;;-2.26;88.93;93365.72;5033916;28;20045;-46
2023/02/01 00:34:34;;;;;;;7.78;4.90;;;;;;;-2.33;88.77;93361.47;5034736;28;20539;-47
2023/02/01 00:37:00;;;;;;;8.13;5.82;;;;;;;-2.18;88.53;93350.59;5033164;28;20115;-47
2023/02/01 00:39:25;;;;;;;10.65;7.22;;;;;;;-2.11;88.25;93352.19;5040837;28;20741;-48
2023/02/01 00:41:51;;;;;;;8.10;6.65;;;;;;;-2.22;89.20;93343.91;5032351;28;20052;-47
2023/02/01 00:44:16;;;;;;;9.73;7.32;;;;;;;-2.02;89.30;93354.78;5037890;28;20036;-47
2023/02/01 00:46:42;;;;;;;9.18;5.57;;;;;;;-1.98;88.82;93350.66;5034828;28;20028;-47
2023/02/01 00:49:08;;;;;;;7.45;5.68;;;;;;;-2.00;88.48;93342.28;5038099;28;20082;-47
2023/02/01 00:51:35;;;;;;;11.90;6.40;;;;;;;-2.16;88.76;93336.59;5042095;28;20025;-47
2023/02/01 00:54:00;;;;;;;7.47;5.88;;;;;;;-2.09;89.38;93347.78;5043303;28;20028;-47
2023/02/01 00:56:27;;;;;;;14.50;7.70;;;;;;;-2.06;89.00;93344.16;5036700;28;20029;-47
2023/02/01 00:58:53;;;;;;;21.73;10.48;;;;;;;-2.20;89.55;93347.63;5037354;28;20053;-46
2023/02/01 01:01:21;;;;;;;51.13;24.95;;;;;;;-2.16;89.87;93347.44;5035116;28;20068;-47
2023/02/01 01:03:50;;;;;;;8.55;5.68;;;;;;;-2.10;90.07;93332.78;5039235;28;20024;-48
2023/02/01 01:06:18;;;;;;;7.20;4.70;;;;;;;-2.02;89.95;93333.88;5035442;28;20033;-48
2023/02/01 01:08:43;;;;;;;10.63;5.70;;;;;;;-2.01;90.34;93334.59;5034968;28;20106;-48
2023/02/01 01:11:18;;;;;;;16.15;7.55;;;;;;;-2.13;90.27;93322.16;5042248;28;20056;-48
2023/02/01 01:13:46;;;;;;;9.32;5.43;;;;;;;-1.74;89.04;93329.59;5035031;28;20503;-47
2023/02/01 01:16:11;;;;;;;12.63;7.03;;;;;;;-1.73;88.04;93335.72;5039903;28;20021;-46
2023/02/01 01:18:38;;;;;;;7.15;4.95;;;;;;;-1.89;88.17;93325.44;5039316;28;20032;-47
2023/02/01 01:21:05;;;;;;;4.78;4.10;;;;;;;-1.89;87.56;93328.16;5037351;28;20017;-46
2023/02/01 01:23:30;;;;;;;5.75;4.00;;;;;;;-1.70;85.85;93319.31;5034541;28;20108;-48
2023/02/01 01:25:56;;;;;;;5.93;4.00;;;;;;;-1.92;86.47;93324.44;5036569;28;20111;-48
2023/02/01 01:28:21;;;;;;;3.30;3.00;;;;;;;-1.87;86.07;93326.47;5038629;28;20090;-48
2023/02/01 01:30:47;;;;;;;4.60;3.75;;;;;;;-1.95;86.38;93327.34;5035953;28;20021;-48
2023/02/01 01:33:13;;;;;;;5.57;3.50;;;;;;;-1.93;86.03;93324.91;5039108;28;20594;-47
2023/02/01 01:35:38;;;;;;;6.82;4.20;;;;;;;-2.06;87.26;93327.94;5036520;28;20176;-47
2023/02/01 01:38:04;;;;;;;6.13;4.28;;;;;;;-2.09;87.09;93320.00;5030347;28;20040;-46
2023/02/01 01:40:30;;;;;;;5.88;3.42;;;;;;;-1.94;86.68;93328.81;5037221;28;20025;-48
2023/02/01 01:42:56;;;;;;;8.60;4.78;;;;;;;-1.94;86.13;93321.44;5033834;28;20033;-48
2023/02/01 01:45:35;;;;;;;10.23;5.80;;;;;;;-2.03;86.70;93326.22;5033954;28;20020;-46
2023/02/01 01:48:27;;;;;;;15.38;6.35;;;;;;;-2.00;86.65;93320.63;5037950;28;20029;-47
2023/02/01 01:51:00;;;;;;;11.60;4.80;;;;;;;-2.03;86.57;93316.16;5037027;28;20041;-46
2023/02/01 01:53:33;;;;;;;9.30;4.63;;;;;;;-1.87;86.44;93323.00;5037304;28;20472;-47
2023/02/01 01:55:58;;;;;;;6.25;3.90;;;;;;;-1.90;86.14;93330.09;5035545;28;20087;-47
2023/02/01 01:58:26;;;;;;;8.15;4.28;;;;;;;-1.95;86.16;93324.63;5035324;28;20033;-48
2023/02/01 02:00:53;;;;;;;5.20;4.00;;;;;;;-1.96;86.35;93321.19;5040227;28;20068;-47
2023/02/01 02:03:21;;;;;;;7.53;4.93;;;;;;;-2.01;86.67;93327.25;5043220;28;20102;-47
2023/02/01 02:05:49;;;;;;;9.63;5.00;;;;;;;-2.02;86.28;93333.13;5038176;28;20501;-48
2023/02/01 02:08:15;;;;;;;7.18;4.43;;;;;;;-2.04;86.03;93332.88;5056968;28;20041;-47
2023/02/01 02:13:29;;;;;;;7.65;4.82;;;;;;;-2.39;86.35;93306.56;5035440;28;20071;-48
2023/02/01 02:16:26;;;;;;;7.55;5.20;;;;;;;-2.38;87.99;93329.66;5037724;28;20032;-48
2023/02/01 02:19:24;;;;;;;7.30;4.93;;;;;;;-2.38;88.58;93326.97;5029814;28;20052;-47
2023/02/01 02:22:20;;;;;;;12.35;6.18;;;;;;;-2.41;89.16;93333.31;5032732;28;20529;-47
2023/02/01 02:25:16;;;;;;;7.07;5.10;;;;;;;-2.53;89.64;93344.41;5039859;28;20037;-47
2023/02/01 02:28:09;;;;;;;6.43;5.32;;;;;;;-2.57;89.91;93339.19;5036516;28;20037;-47
2023/02/01 02:30:51;;;;;;;11.88;7.10;;;;;;;-2.65;90.12;93331.94;5041063;28;20037;-49
2023/02/01 02:33:19;;;;;;;9.57;6.45;;;;;;;-2.73;91.83;93338.94;5038270;28;20041;-47
2023/02/01 02:35:57;;;;;;;11.93;6.55;;;;;;;-2.54;92.81;93332.88;5037082;28;20039;-47
2023/02/01 02:38:37;;;;;;;12.38;6.90;;;;;;;-2.62;93.31;93333.72;5039391;28;20037;-47
2023/02/01 02:47:23;;;;;;;11.52;7.68;;;;;;;-2.70;93.61;93327.19;5036556;28;20509;-48
2023/02/01 02:47:27;;;;;;;11.60;7.57;;;;;;;-2.89;93.75;93320.47;5033496;28;20064;-48
2023/02/01 02:55:43;;;;;;;9.57;6.68;;;;;;;-3.36;93.50;93330.22;5048104;28;20572;-46
2023/02/01 03:06:24;;;;;;;7.85;5.70;;;;;;;-3.42;94.08;93331.31;5044404;28;20550;-47
2023/02/01 03:08:53;;;;;;;13.52;8.45;;;;;;;-3.39;93.85;93331.13;5039211;28;20033;-47
2023/02/01 03:11:20;;;;;;;10.15;7.05;;;;;;;-3.42;94.42;93334.75;5038387;28;20041;-46
2023/02/01 03:13:52;;;;;;;9.95;5.57;;;;;;;-3.28;94.49;93331.34;5035203;28;20529;-46
2023/02/01 03:16:43;;;;;;;13.20;6.47;;;;;;;-3.17;95.05;93326.16;5037508;28;20048;-47
2023/02/01 03:19:14;;;;;;;12.35;7.65;;;;;;;-3.16;95.15;93338.44;5042650;28;20032;-47
2023/02/01 03:21:45;;;;;;;12.60;6.90;;;;;;;-2.95;95.21;93346.66;5040112;28;20418;-47
2023/02/01 03:24:21;;;;;;;9.68;6.38;;;;;;;-2.99;94.38;93346.09;5042129;28;20539;-48
2023/02/01 03:26:55;;;;;;;6.10;4.35;;;;;;;-3.04;93.28;93342.09;5041114;28;20037;-47
2023/02/01 03:29:29;;;;;;;16.77;8.48;;;;;;;-2.76;93.64;93356.81;5036782;28;20037;-46
2023/02/01 03:31:55;;;;;;;26.42;12.90;;;;;;;-2.58;94.11;93347.78;5040522;28;20053;-46
2023/02/01 03:34:21;;;;;;;20.48;11.20;;;;;;;-2.61;94.05;93348.69;5038239;28;20068;-46
2023/02/01 03:36:53;;;;;;;17.15;10.30;;;;;;;-2.50;94.28;93355.03;5040356;28;20033;-46
2023/02/01 03:39:33;;;;;;;57.65;26.15;;;;;;;-2.42;94.18;93361.56;5036151;28;20032;-46
2023/02/01 03:42:00;;;;;;;45.08;22.08;;;;;;;-2.35;93.76;93346.91;5059953;28;20017;-46
2023/02/01 03:44:31;;;;;;;26.38;12.88;;;;;;;-2.31;93.33;93350.16;5044814;28;20033;-47
2023/02/01 03:47:03;;;;;;;36.05;16.63;;;;;;;-2.28;92.80;93351.94;5034704;28;20029;-47
2023/02/01 03:49:33;;;;;;;27.85;15.52;;;;;;;-2.29;92.90;93366.66;5041961;28;20596;-47
2023/02/01 03:52:03;;;;;;;26.88;12.90;;;;;;;-2.27;92.73;93358.81;5044156;28;20668;-49
2023/02/01 03:54:29;;;;;;;22.95;12.82;;;;;;;-2.34;92.34;93351.84;5050165;28;20035;-47
2023/02/01 03:56:57;;;;;;;27.00;12.70;;;;;;;-2.26;92.31;93352.22;5040946;28;20425;-47
2023/02/01 03:59:23;;;;;;;19.48;9.80;;;;;;;-2.07;91.60;93353.47;5043837;28;20037;-47
2023/02/01 04:01:49;;;;;;;12.32;8.27;;;;;;;-2.08;90.90;93346.56;5043673;28;20037;-49
2023/02/01 04:04:19;;;;;;;18.55;9.93;;;;;;;-2.09;90.49;93363.28;5039271;28;20102;-48
2023/02/01 04:06:46;;;;;;;22.13;11.35;;;;;;;-2.13;90.88;93354.63;5047589;28;20047;-48
2023/02/01 04:09:12;;;;;;;11.00;8.30;;;;;;;-2.17;90.84;93354.06;5036815;28;20025;-48
2023/02/01 04:11:37;;;;;;;17.10;9.43;;;;;;;-2.15;91.08;93355.09;5044952;28;20032;-52
2023/02/01 04:14:04;;;;;;;21.48;12.25;;;;;;;-2.11;90.73;93347.53;5034326;28;20029;-49
2023/02/01 04:16:31;;;;;;;8.52;6.85;;;;;;;-1.97;89.84;93346.00;5047834;28;20040;-51
2023/02/01 04:18:57;;;;;;;17.17;10.23;;;;;;;-2.00;89.43;93346.94;5039126;28;20033;-49
2023/02/01 04:21:22;;;;;;;21.02;10.13;;;;;;;-1.98;89.16;93352.63;5040471;28;20033;-51
2023/02/01 04:23:48;;;;;;;14.00;9.32;;;;;;;-1.97;89.65;93352.13;5037120;28;20029;-50
2023/02/01 04:26:13;;;;;;;11.05;6.68;;;;;;;-2.06;89.00;93352.28;5042229;28;20033;-49
2023/02/01 04:28:39;;;;;;;7.32;6.47;;;;;;;-2.05;89.69;93355.69;5041772;28;20626;-48
2023/02/01 04:31:04;;;;;;;9.25;6.60;;;;;;;-2.00;89.43;93344.97;5044722;28;20505;-48
2023/02/01 04:33:30;;;;;;;6.50;5.20;;;;;;;-2.06;89.78;93343.41;5040321;28;20055;-47
2023/02/01 04:35:55;;;;;;;12.48;7.55;;;;;;;-1.88;88.64;93345.88;5037419;28;20057;-47
2023/02/01 04:38:21;;;;;;;15.00;7.45;;;;;;;-1.91;87.72;93352.97;5037042;28;20033;-48
2023/02/01 04:40:47;;;;;;;12.95;7.63;;;;;;;-1.92;88.35;93356.88;5033515;28;20038;-48
2023/02/01 04:43:13;;;;;;;8.10;6.13;;;;;;;-2.07;88.78;93345.38;5037984;28;20033;-47
2023/02/01 04:45:38;;;;;;;8.77;5.40;;;;;;;-1.90;88.58;93351.00;5037347;28;20032;-48
2023/02/01 04:48:04;;;;;;;8.95;6.13;;;;;;;-1.99;88.64;93343.03;5039006;28;20038;-47
2023/02/01 04:50:29;;;;;;;7.55;6.03;;;;;;;-2.07;88.78;93350.78;5038107;28;20033;-49
2023/02/01 04:52:55;;;;;;;11.25;6.65;;;;;;;-2.01;88.37;93350.84;5034534;28;20424;-47
2023/02/01 04:55:20;;;;;;;10.05;5.90;;;;;;;-1.95;87.67;93349.69;5033922;28;20493;-47
2023/02/01 04:57:46;;;;;;;6.97;5.25;;;;;;;-1.95;87.99;93354.41;5043133;28;20407;-48
2023/02/01 05:00:13;;;;;;;9.82;5.80;;;;;;;-1.91;87.34;93358.41;5034869;28;20654;-48
2023/02/01 05:02:38;;;;;;;6.55;5.40;;;;;;;-1.92;87.48;93348.03;5036085;28;20052;-47
2023/02/01 05:05:04;;;;;;;6.75;5.75;;;;;;;-1.97;89.10;93365.66;5037701;28;20606;-48
2023/02/01 05:07:30;;;;;;;9.13;6.72;;;;;;;-2.01;90.26;93365.13;5033017;28;20029;-48
2023/02/01 05:09:55;;;;;;;16.33;7.43;;;;;;;-1.93;91.05;93363.53;5036976;28;20033;-49
2023/02/01 05:15:05;;;;;;;12.18;7.88;;;;;;;-1.91;90.99;93371.94;5042504;28;20131;-48
2023/02/01 05:17:31;;;;;;;9.30;7.05;;;;;;;-1.97;91.18;93367.66;5034797;28;20040;-46
2023/02/01 05:19:56;;;;;;;12.70;7.72;;;;;;;-1.92;91.44;93375.84;5040645;28;20659;-49
2023/02/01 05:22:22;;;;;;;17.50;9.27;;;;;;;-1.89;91.15;93377.59;5034873;28;20064;-48
2023/02/01 05:24:47;;;;;;;13.98;7.80;;;;;;;-1.90;90.67;93388.88;5038483;28;20111;-48
2023/02/01 05:27:13;;;;;;;21.65;12.88;;;;;;;-1.89;91.10;93393.84;5035739;28;20029;-47
2023/02/01 05:29:38;;;;;;;18.60;10.93;;;;;;;-1.95;91.36;93384.16;5041060;28;20039;-48
2023/02/01 05:32:04;;;;;;;17.58;9.48;;;;;;;-1.79;91.37;93387.09;5031652;28;20487;-48
2023/02/01 05:34:29;;;;;;;10.30;7.18;;;;;;;-1.66;89.78;93392.94;5035553;28;20040;-47
2023/02/01 05:36:55;;;;;;;9.40;6.25;;;;;;;-1.72;89.42;93396.78;5037083;28;20144;-46
2023/02/01 05:39:20;;;;;;;16.05;6.60;;;;;;;-1.69;89.73;93393.13;5038194;28;20040;-47
2023/02/01 05:41:46;;;;;;;13.00;7.25;;;;;;;-1.65;89.28;93388.25;5039357;28;20029;-48
2023/02/01 05:44:11;;;;;;;10.70;6.93;;;;;;;-1.75;89.38;93387.63;5034169;28;20040;-47
2023/02/01 05:46:37;;;;;;;12.15;8.02;;;;;;;-1.63;89.72;93396.66;5035532;28;20033;-48
2023/02/01 05:49:03;;;;;;;8.18;6.03;;;;;;;-1.68;89.53;93392.66;5032831;28;20028;-47
2023/02/01 05:51:29;;;;;;;8.55;6.10;;;;;;;-1.66;90.11;93390.22;5033485;28;20109;-49
2023/02/01 05:53:54;;;;;;;11.30;5.70;;;;;;;-1.62;89.07;93390.75;5032170;28;20032;-48
2023/02/01 05:56:20;;;;;;;9.52;5.72;;;;;;;-1.65;89.83;93390.97;5035918;28;20119;-47
2023/02/01 05:58:45;;;;;;;8.95;5.43;;;;;;;-1.67;89.55;93396.13;5037000;28;20048;-47
2023/02/01 06:01:11;;;;;;;8.90;6.35;;;;;;;-1.59;89.05;93399.91;5031974;28;20024;-49
2023/02/01 06:03:36;;;;;;;10.40;6.82;;;;;;;-1.61;89.32;93400.38;5035605;28;20488;-47
2023/02/01 06:06:02;;;;;;;9.77;6.43;;;;;;;-1.50;89.08;93402.50;5030863;28;20747;-48
2023/02/01 06:08:27;;;;;;;10.55;6.50;;;;;;;-1.44;88.80;93402.56;5031867;28;20018;-47
2023/02/01 06:11:04;;;;;;;8.93;6.55;;;;;;;-1.53;89.26;93406.13;5029655;28;20025;-47
2023/02/01 06:13:30;;;;;;;13.25;5.50;;;;;;;-1.38;89.00;93406.06;5043961;28;20492;-48
2023/02/01 06:15:56;;;;;;;11.77;5.90;;;;;;;-1.55;89.20;93408.56;5046972;28;20035;-47
2023/02/01 06:18:23;;;;;;;24.13;10.02;;;;;;;-1.46;89.16;93419.28;5042180;28;20115;-47
2023/02/01 06:20:54;;;;;;;8.38;5.85;;;;;;;-1.43;88.70;93412.94;5040972;28;20039;-47
2023/02/01 06:23:23;;;;;;;38.47;19.25;;;;;;;-1.35;88.46;93416.72;5041518;28;20032;-47
2023/02/01 06:25:52;;;;;;;51.97;25.85;;;;;;;-1.36;88.66;93414.47;5039161;28;20668;-47
2023/02/01 06:28:17;;;;;;;30.05;13.57;;;;;;;-1.33;88.53;93418.94;5038776;28;20033;-48
2023/02/01 06:30:45;;;;;;;24.85;14.57;;;;;;;-1.39;88.80;93416.19;5039128;28;20837;-49
2023/02/01 06:33:14;;;;;;;11.43;6.93;;;;;;;-1.32;88.78;93410.34;5039330;28;20048;-47
2023/02/01 06:35:42;;;;;;;12.63;8.32;;;;;;;-1.29;88.29;93414.06;5036602;28;20424;-47
2023/02/01 06:38:07;;;;;;;12.60;8.68;;;;;;;-1.28;89.07;93413.63;5038172;28;20588;-48
2023/02/01 06:40:33;;;;;;;13.63;8.48;;;;;;;-1.19;88.27;93412.75;5039689;28;20139;-49
2023/02/01 06:42:59;;;;;;;11.52;7.03;;;;;;;-1.10;88.13;93418.75;5039405;28;20082;-48
2023/02/01 06:45:24;;;;;;;11.80;7.53;;;;;;;-1.12;87.50;93433.97;5036381;28;20029;-48
2023/02/01 06:47:50;;;;;;;14.45;7.25;;;;;;;-1.04;87.77;93435.81;5037962;28;20017;-47
2023/02/01 06:50:15;;;;;;;29.73;13.25;;;;;;;-1.04;87.38;93441.22;5042091;28;20040;-47
2023/02/01 06:52:41;;;;;;;22.25;11.98;;;;;;;-1.04;87.33;93443.94;5034407;28;20159;-47
2023/02/01 06:55:06;;;;;;;26.13;14.25;;;;;;;-1.08;87.91;93435.28;5032275;28;20036;-48
2023/02/01 06:57:34;;;;;;;21.65;10.80;;;;;;;-1.05;87.88;93428.16;5040578;28;20532;-48
2023/02/01 06:59:59;;;;;;;14.25;9.20;;;;;;;-0.99;87.43;93435.13;5040188;28;20029;-47
2023/02/01 07:02:25;;;;;;;14.65;8.07;;;;;;;-1.00;88.03;93439.09;5040278;28;20080;-47
2023/02/01 07:04:50;;;;;;;15.60;9.07;;;;;;;-0.93;88.02;93448.75;5041116;28;20026;-48
2023/02/01 07:07:16;;;;;;;13.10;7.45;;;;;;;-0.85;88.13;93447.13;5038114;28;20163;-47
2023/02/01 07:09:42;;;;;;;9.73;7.45;;;;;;;-0.84;87.54;93459.44;5040354;28;20106;-47
2023/02/01 07:12:07;;;;;;;21.55;11.50;;;;;;;-0.72;86.75;93446.78;5044082;28;20523;-47
2023/02/01 07:14:33;;;;;;;26.73;14.65;;;;;;;-0.54;86.45;93449.22;5038458;28;20028;-46
2023/02/01 07:16:58;;;;;;;11.50;8.07;;;;;;;-0.35;85.42;93448.41;5041296;28;20064;-46
2023/02/01 07:19:23;;;;;;;8.07;6.05;;;;;;;-0.31;85.38;93459.06;5048262;28;20021;-49
2023/02/01 07:21:49;;;;;;;15.35;9.32;;;;;;;-0.25;84.32;93455.16;5044632;28;20082;-46
2023/02/01 07:24:14;;;;;;;14.07;9.00;;;;;;;-0.21;85.21;93469.25;5046969;28;20084;-46
2023/02/01 07:26:40;;;;;;;14.30;5.80;;;;;;;-0.20;84.49;93473.47;5047714;28;20040;-47
2023/02/01 07:29:05;;;;;;;11.48;6.20;;;;;;;-0.07;83.29;93483.94;5042617;28;20025;-47
2023/02/01 07:31:31;;;;;;;14.50;8.38;;;;;;;-0.21;84.01;93484.78;5047576;28;20045;-46
2023/02/01 07:33:58;;;;;;;8.40;5.30;;;;;;;-0.17;83.75;93485.31;5046621;28;20025;-48
2023/02/01 07:36:23;;;;;;;12.50;4.80;;;;;;;-0.19;84.66;93490.47;5044116;28;20033;-48
2023/02/01 07:38:49;;;;;;;6.30;5.07;;;;;;;-0.19;84.05;93483.09;5046225;28;20026;-47
2023/02/01 07:41:15;;;;;;;6.85;6.07;;;;;;;-0.17;84.26;93486.06;5041717;28;20044;-49
2023/02/01 07:43:40;;;;;;;5.60;4.43;;;;;;;-0.36;84.99;93484.91;5038600;28;20476;-47
2023/02/01 07:46:06;;;;;;;9.25;4.38;;;;;;;-0.27;84.91;93497.56;5042345;28;20026;-47
2023/02/01 07:48:33;;;;;;;5.78;4.57;;;;;;;-0.14;83.82;93493.25;5036617;28;20470;-47
2023/02/01 07:51:04;;;;;;;5.03;4.05;;;;;;;-0.11;83.58;93502.41;5041166;28;20087;-48
2023/02/01 07:53:30;;;;;;;6.90;4.93;;;;;;;-0.09;83.33;93495.25;5040424;28;20538;-47
2023/02/01 07:55:56;;;;;;;8.20;4.50;;;;;;;-0.14;83.76;93506.06;5033911;28;20418;-47
2023/02/01 07:58:23;;;;;;;8.93;4.85;;;;;;;-0.16;83.41;93487.56;5038795;28;20075;-48
2023/02/01 08:03:33;;;;;;;10.00;6.28;;;;;;;0.10;82.16;93497.66;5042923;28;20520;-46
2023/02/01 08:05:58;;;;;;;16.05;7.60;;;;;;;-0.01;82.88;93501.78;5041865;28;20033;-46
2023/02/01 08:08:23;;;;;;;9.25;5.63;;;;;;;0.16;82.81;93501.16;5040367;28;20021;-47
2023/02/01 08:10:49;;;;;;;7.53;4.65;;;;;;;0.25;81.68;93501.00;5038533;28;20524;-47
2023/02/01 08:13:15;;;;;;;14.10;6.95;;;;;;;-0.05;82.29;93490.41;5036493;28;20057;-47
2023/02/01 08:15:40;;;;;;;11.85;6.15;;;;;;;0.05;82.12;93509.22;5037145;28;20021;-46
2023/02/01 08:18:06;;;;;;;5.78;4.57;;;;;;;-0.01;81.81;93503.75;5039743;28;20036;-46
2023/02/01 08:20:34;;;;;;;11.25;5.38;;;;;;;0.12;81.97;93511.50;5033480;28;20031;-47
2023/02/01 08:22:59;;;;;;;11.43;4.50;;;;;;;0.13;82.07;93515.72;5038201;28;20040;-48
2023/02/01 08:25:25;;;;;;;7.13;4.43;;;;;;;-0.02;81.21;93484.00;5037046;28;20522;-45
2023/02/01 08:27:51;;;;;;;6.18;3.85;;;;;;;0.24;81.37;93513.09;5031954;28;20537;-47
2023/02/01 08:30:16;;;;;;;8.13;3.88;;;;;;;0.17;80.88;93505.38;5033588;28;20026;-47
2023/02/01 08:32:42;;;;;;;6.70;4.28;;;;;;;0.15;81.56;93516.72;5035993;28;20125;-47
2023/02/01 08:35:08;;;;;;;6.03;4.47;;;;;;;0.29;81.06;93515.09;5035961;28;20063;-46
2023/02/01 08:37:34;;;;;;;7.38;4.40;;;;;;;0.21;80.90;93522.94;5036339;28;20036;-47
2023/02/01 08:39:59;;;;;;;8.68;4.28;;;;;;;0.28;80.94;93516.34;5035723;28;20064;-48
2023/02/01 08:45:09;;;;;;;6.35;4.70;;;;;;;0.39;79.71;93522.59;5040102;28;20035;-46
2023/02/01 08:47:35;;;;;;;12.10;4.78;;;;;;;0.32;80.18;93525.00;5045417;28;20021;-48
2023/02/01 08:50:00;;;;;;;9.65;4.35;;;;;;;0.32;80.21;93523.06;5038485;28;20394;-47
2023/02/01 08:52:26;;;;;;;9.93;5.00;;;;;;;0.34;79.76;93526.03;5040091;28;20036;-47
2023/02/01 08:54:51;;;;;;;10.52;5.28;;;;;;;0.34;80.76;93536.13;5040974;28;20024;-48
2023/02/01 08:57:17;;;;;;;10.73;5.57;;;;;;;0.34;80.17;93528.00;5030416;28;20029;-47
2023/02/01 08:59:44;;;;;;;5.28;3.50;;;;;;;0.41;80.47;93530.28;5034525;28;20040;-47
2023/02/01 09:02:13;;;;;;;9.38;4.88;;;;;;;0.30;80.21;93530.94;5035400;28;20112;-45
2023/02/01 09:04:39;;;;;;;10.65;4.72;;;;;;;0.33;80.33;93534.63;5032699;28;20161;-48
2023/02/01 09:07:04;;;;;;;6.65;4.50;;;;;;;0.35;80.65;93529.47;5035392;28;20034;-48
2023/02/01 09:09:30;;;;;;;8.50;4.60;;;;;;;0.53;79.71;93534.56;5034918;28;20026;-47
2023/02/01 09:11:55;;;;;;;9.48;4.53;;;;;;;0.60;78.92;93536.84;5035688;28;20029;-49
2023/02/01 09:14:21;;;;;;;9.05;4.88;;;;;;;0.64;79.35;93537.38;5037027;28;20032;-46
2023/02/01 09:16:46;;;;;;;7.45;5.25;;;;;;;0.63;79.37;93528.47;5033643;28;20036;-44
2023/02/01 09:19:11;;;;;;;7.15;5.20;;;;;;;0.70;78.88;93532.72;5048001;28;20043;-47
2023/02/01 09:21:37;;;;;;;9.80;5.45;;;;;;;0.69;79.75;93536.69;5037466;28;20028;-46
2023/02/01 09:24:03;;;;;;;8.68;5.03;;;;;;;0.65;79.70;93533.44;5035616;28;20029;-47
2023/02/01 09:26:29;;;;;;;6.53;4.15;;;;;;;0.60;78.84;93515.13;5036672;28;20035;-47
2023/02/01 09:28:55;;;;;;;10.40;5.38;;;;;;;0.68;78.72;93529.75;5037557;28;20629;-47
2023/02/01 09:31:20;;;;;;;8.50;4.13;;;;;;;0.80;78.53;93527.84;5037145;28;20452;-49
2023/02/01 09:33:46;;;;;;;11.63;4.82;;;;;;;0.74;78.18;93528.56;5038115;28;20079;-46
2023/02/01 09:36:11;;;;;;;8.07;5.20;;;;;;;0.75;78.40;93516.47;5037582;28;20021;-47
2023/02/01 09:38:37;;;;;;;11.23;5.60;;;;;;;0.80;79.13;93520.47;5035709;28;20032;-50
2023/02/01 09:41:14;;;;;;;11.10;4.93;;;;;;;1.05;78.27;93522.34;5033875;28;20021;-47
2023/02/01 09:43:57;;;;;;;11.00;5.65;;;;;;;1.09;77.71;93527.53;5041277;28;20067;-48
2023/02/01 09:46:30;;;;;;;9.85;4.72;;;;;;;1.12;77.40;93523.84;5043356;28;20043;-47
2023/02/01 09:49:00;;;;;;;15.68;7.25;;;;;;;0.95;77.74;93528.44;5043140;28;20451;-48
2023/02/01 09:51:33;;;;;;;13.63;7.50;;;;;;;1.02;78.00;93523.28;5041026;28;20037;-48
2023/02/01 09:54:11;;;;;;;11.27;5.32;;;;;;;0.97;77.13;93524.03;5040927;28;20032;-48
2023/02/01 09:57:02;;;;;;;6.65;5.20;;;;;;;0.91;77.83;93519.78;5040889;28;20033;-48
2023/02/01 09:59:42;;;;;;;8.82;4.72;;;;;;;1.18;77.14;93508.31;5038927;28;20041;-48
2023/02/01 10:02:13;;;;;;;9.73;4.93;;;;;;;1.24;76.08;93506.34;5033135;28;20025;-47
2023/02/01 10:04:39;;;;;;;8.10;4.60;;;;;;;1.51;75.91;93505.75;5036202;28;20057;-48
2023/02/01 10:07:26;;;;;;;7.85;4.30;;;;;;;1.59;75.41;93503.28;5037230;28;20499;-47
2023/02/01 10:10:00;;;;;;;6.50;4.35;;;;;;;1.80;74.43;93480.13;5036469;28;20029;-46
2023/02/01 10:12:25;;;;;;;4.75;3.47;;;;;;;2.34;72.99;93488.84;5038360;28;20032;-47
2023/02/01 10:15:15;;;;;;;5.65;3.83;;;;;;;2.83;70.40;93491.56;5048188;28;20038;-47
2023/02/01 10:17:46;;;;;;;8.07;4.18;;;;;;;3.31;69.09;93491.22;5035156;28;20031;-46
2023/02/01 10:20:26;;;;;;;8.90;4.00;;;;;;;3.93;66.72;93497.91;5036325;28;20060;-47
2023/02/01 10:22:55;;;;;;;5.63;3.75;;;;;;;3.50;67.28;93491.41;5045400;28;20102;-46
2023/02/01 10:25:26;;;;;;;5.68;4.60;;;;;;;3.55;66.27;93487.91;5041687;28;20139;-48
2023/02/01 10:27:52;;;;;;;4.95;2.97;;;;;;;3.78;65.98;93479.13;5036436;28;20040;-46
2023/02/01 10:30:20;;;;;;;5.78;3.35;;;;;;;3.60;65.62;93468.78;5037284;28;20033;-46
2023/02/01 10:32:52;;;;;;;4.40;3.40;;;;;;;3.77;64.96;93474.91;5032813;28;20136;-46
2023/02/01 10:35:23;;;;;;;9.35;4.93;;;;;;;4.30;66.02;93465.41;5045061;28;20029;-48
2023/02/01 10:37:48;;;;;;;4.28;3.28;;;;;;;4.31;63.05;93466.16;5040810;28;20689;-47
2023/02/01 10:40:21;;;;;;;6.97;3.45;;;;;;;4.75;61.84;93451.34;5038866;28;20104;-47
2023/02/01 10:42:51;;;;;;;7.35;3.15;;;;;;;4.90;61.04;93452.47;5038087;28;20522;-46
2023/02/01 10:45:19;;;;;;;6.43;2.78;;;;;;;4.99;60.94;93443.19;5044716;28;20090;-47
2023/02/01 10:47:46;;;;;;;6.90;3.73;;;;;;;4.74;60.32;93450.63;5029774;28;20083;-46
2023/02/01 10:50:18;;;;;;;7.97;3.40;;;;;;;5.29;59.36;93435.63;5031636;28;20509;-46
2023/02/01 10:52:58;;;;;;;6.88;2.92;;;;;;;5.17;59.36;93445.25;5034797;28;20052;-46
2023/02/01 10:55:50;;;;;;;7.85;3.00;;;;;;;5.22;58.75;93450.63;5042035;28;20024;-48
2023/02/01 10:58:21;;;;;;;8.57;4.30;;;;;;;5.03;59.28;93451.84;5043756;28;20036;-48
2023/02/01 11:00:53;;;;;;;7.70;3.80;;;;;;;4.46;61.59;93445.38;5043263;28;20056;-48
2023/02/01 11:03:37;;;;;;;4.70;2.80;;;;;;;4.21;61.47;93457.50;5047547;28;20500;-48
2023/02/01 11:06:10;;;;;;;5.43;3.00;;;;;;;3.94;61.95;93446.75;5042040;28;20024;-48
2023/02/01 11:08:43;;;;;;;5.25;3.13;;;;;;;3.44;63.79;93447.75;5046368;28;20113;-47
2023/02/01 11:11:11;;;;;;;5.18;2.65;;;;;;;3.40;64.71;93455.44;5046815;28;20511;-47
2023/02/01 11:13:38;;;;;;;6.18;3.35;;;;;;;2.87;66.54;93447.69;5046990;28;20044;-48
2023/02/01 11:16:04;;;;;;;4.38;2.90;;;;;;;2.62;66.66;93452.16;5042368;28;20024;-47
2023/02/01 11:18:35;;;;;;;7.25;3.78;;;;;;;2.53;67.91;93454.44;5042249;28;20063;-47
2023/02/01 11:21:01;;;;;;;8.40;3.75;;;;;;;2.50;67.81;93439.81;5045425;28;20543;-47
2023/02/01 11:23:29;;;;;;;10.90;4.43;;;;;;;2.68;68.60;93430.38;5045447;28;20059;-47
2023/02/01 11:26:00;;;;;;;7.83;4.07;;;;;;;2.73;68.22;93441.25;5045658;28;20247;-48
2023/02/01 11:28:33;;;;;;;5.00;3.55;;;;;;;2.99;67.21;93436.25;5038670;28;20090;-47
2023/02/01 11:31:04;;;;;;;5.28;3.33;;;;;;;2.84;66.56;93438.50;5039092;28;20045;-47
2023/02/01 11:33:34;;;;;;;7.05;3.70;;;;;;;3.08;67.05;93427.78;5046072;28;20036;-47
2023/02/01 11:36:06;;;;;;;6.50;4.68;;;;;;;3.41;65.94;93431.63;5047043;28;20029;-49
2023/02/01 11:38:33;;;;;;;7.22;4.47;;;;;;;3.99;63.21;93432.31;5036581;28;20693;-47
2023/02/01 11:41:13;;;;;;;6.03;3.17;;;;;;;3.91;63.44;93429.41;5032554;28;20026;-47
2023/02/01 11:43:56;;;;;;;4.93;3.65;;;;;;;4.44;62.39;93425.28;5040746;28;20029;-47
2023/02/01 11:46:27;;;;;;;5.43;3.67;;;;;;;4.69;60.43;93418.59;5038504;28;20508;-48
2023/02/01 11:48:54;;;;;;;10.82;5.15;;;;;;;4.88;60.23;93419.41;5049650;28;20079;-46
2023/02/01 11:51:25;;;;;;;10.55;4.13;;;;;;;5.38;58.58;93421.59;5037459;28;20789;-47
2023/02/01 11:54:21;;;;;;;6.50;3.53;;;;;;;6.58;55.86;93419.72;5031857;28;20029;-47
2023/02/01 11:57:12;;;;;;;5.43;2.97;;;;;;;7.93;51.56;93415.38;5041194;28;20673;-47
2023/02/01 12:00:03;;;;;;;7.28;3.30;;;;;;;9.79;47.65;93415.28;5047999;28;20087;-48
2023/02/01 12:03:01;;;;;;;12.85;5.00;;;;;;;10.49;44.33;93405.44;5044682;28;20020;-48
2023/02/01 12:05:35;;;;;;;4.35;2.80;;;;;;;10.27;43.29;93406.13;5054313;28;20090;-47
2023/02/01 12:08:22;;;;;;;3.55;2.90;;;;;;;10.62;42.87;93405.28;5042386;28;20050;-48